sensor_id;sensor_type;location;lat;lon;timestamp;P1;durP1;ratioP1;P2;durP2;ratioP2
21987;SDS011;11158;53.404;-1.510;2023-08-07T00:01:18;3.17;;;1.65;;
21987;SDS011;11158;53.404;-1.510;2023-08-07T00:04:02;5.38;;;1.50;;
21987;SDS011;11158;53.404;-1.510;2023-08-07T00:06:46;4.35;;;1.48;;
21987;SDS011;11158;53.404;-1.510;2023-08-07T00:09:30;2.03;;;1.20;;
21987;SDS011;11158;53.404;-1.510;2023-08-07T00:12:14;3.80;;;1.80;;
21987;SDS011;11158;53.404;-1.510;2023-08-07T00:14:58;2.72;;;1.60;;
21987;SDS011;11158;53.404;-1.510;2023-08-07T00:17:42;4.75;;;1.90;;
21987;SDS011;11158;53.404;-1.510;2023-08-07T00:20:26;3.90;;;1.40;;
21987;SDS011;11158;53.404;-1.510;2023-08-07T00:23:10;2.58;;;1.58;;
21987;SDS011;11158;53.404;-1.510;2023-08-07T00:25:54;5.25;;;1.60;;
21987;SDS011;11158;53.404;-1.510;2023-08-07T00:28:39;5.53;;;1.95;;
21987;SDS011;11158;53.404;-1.510;2023-08-07T00:31:22;3.47;;;1.92;;
21987;SDS011;11158;53.404;-1.510;2023-08-07T00:34:07;2.80;;;1.40;;
21987;SDS011;11158;53.404;-1.510;2023-08-07T00:36:51;3.63;;;1.50;;
21987;SDS011;11158;53.404;-1.510;2023-08-07T00:39:35;1.80;;;1.35;;
21987;SDS011;11158;53.404;-1.510;2023-08-07T00:42:18;4.05;;;1.50;;
21987;SDS011;11158;53.404;-1.510;2023-08-07T00:45:03;3.88;;;1.33;;
21987;SDS011;11158;53.404;-1.510;2023-08-07T00:47:47;4.32;;;1.50;;
21987;SDS011;11158;53.404;-1.510;2023-08-07T00:50:32;2.92;;;1.27;;
21987;SDS011;11158;53.404;-1.510;2023-08-07T00:53:16;2.97;;;1.30;;
21987;SDS011;11158;53.404;-1.510;2023-08-07T00:56:01;2.33;;;1.40;;
21987;SDS011;11158;53.404;-1.510;2023-08-07T00:58:46;2.83;;;1.05;;
21987;SDS011;11158;53.404;-1.510;2023-08-07T01:01:30;3.08;;;1.30;;
21987;SDS011;11158;53.404;-1.510;2023-08-07T01:04:15;3.35;;;1.33;;
21987;SDS011;11158;53.404;-1.510;2023-08-07T01:06:59;2.08;;;1.33;;
21987;SDS011;11158;53.404;-1.510;2023-08-07T01:09:43;2.03;;;1.58;;
21987;SDS011;11158;53.404;-1.510;2023-08-07T01:12:32;6.07;;;1.75;;
21987;SDS011;11158;53.404;-1.510;2023-08-07T01:15:27;3.78;;;1.52;;
21987;SDS011;11158;53.404;-1.510;2023-08-07T01:18:15;2.20;;;1.75;;
21987;SDS011;11158;53.404;-1.510;2023-08-07T01:21:00;2.17;;;1.20;;
21987;SDS011;11158;53.404;-1.510;2023-08-07T01:23:49;5.00;;;1.40;;
21987;SDS011;11158;53.404;-1.510;2023-08-07T01:26:33;2.28;;;1.25;;
21987;SDS011;11158;53.404;-1.510;2023-08-07T01:29:29;4.30;;;2.50;;
21987;SDS011;11158;53.404;-1.510;2023-08-07T01:32:22;3.83;;;2.00;;
21987;SDS011;11158;53.404;-1.510;2023-08-07T01:35:11;3.05;;;1.55;;
21987;SDS011;11158;53.404;-1.510;2023-08-07T01:37:58;3.58;;;1.90;;
21987;SDS011;11158;53.404;-1.510;2023-08-07T01:40:44;3.20;;;1.83;;
21987;SDS011;11158;53.404;-1.510;2023-08-07T01:43:30;3.78;;;1.58;;
21987;SDS011;11158;53.404;-1.510;2023-08-07T01:46:16;5.30;;;1.77;;
21987;SDS011;11158;53.404;-1.510;2023-08-07T01:49:00;2.13;;;1.88;;
21987;SDS011;11158;53.404;-1.510;2023-08-07T01:51:44;2.97;;;1.45;;
21987;SDS011;11158;53.404;-1.510;2023-08-07T01:54:31;2.50;;;1.50;;
21987;SDS011;11158;53.404;-1.510;2023-08-07T01:57:15;3.67;;;1.70;;
21987;SDS011;11158;53.404;-1.510;2023-08-07T01:59:59;1.80;;;1.60;;
21987;SDS011;11158;53.404;-1.510;2023-08-07T02:02:43;4.03;;;1.85;;
21987;SDS011;11158;53.404;-1.510;2023-08-07T02:05:29;7.93;;;1.75;;
21987;SDS011;11158;53.404;-1.510;2023-08-07T02:08:13;1.38;;;1.27;;
21987;SDS011;11158;53.404;-1.510;2023-08-07T02:10:58;2.40;;;1.35;;
21987;SDS011;11158;53.404;-1.510;2023-08-07T02:13:45;1.33;;;1.23;;
21987;SDS011;11158;53.404;-1.510;2023-08-07T02:16:29;1.63;;;1.48;;
21987;SDS011;11158;53.404;-1.510;2023-08-07T02:19:13;1.73;;;1.30;;
21987;SDS011;11158;53.404;-1.510;2023-08-07T02:21:57;5.00;;;1.70;;
21987;SDS011;11158;53.404;-1.510;2023-08-07T02:24:42;2.33;;;1.52;;
21987;SDS011;11158;53.404;-1.510;2023-08-07T02:27:25;2.78;;;1.40;;
21987;SDS011;11158;53.404;-1.510;2023-08-07T02:30:10;2.97;;;1.30;;
21987;SDS011;11158;53.404;-1.510;2023-08-07T02:32:55;1.85;;;1.38;;
21987;SDS011;11158;53.404;-1.510;2023-08-07T02:35:39;3.33;;;1.58;;
21987;SDS011;11158;53.404;-1.510;2023-08-07T02:38:26;6.25;;;2.03;;
21987;SDS011;11158;53.404;-1.510;2023-08-07T02:41:10;2.92;;;1.40;;
21987;SDS011;11158;53.404;-1.510;2023-08-07T02:43:55;3.83;;;1.40;;
21987;SDS011;11158;53.404;-1.510;2023-08-07T02:46:40;2.25;;;1.35;;
21987;SDS011;11158;53.404;-1.510;2023-08-07T02:49:24;2.05;;;1.30;;
21987;SDS011;11158;53.404;-1.510;2023-08-07T02:52:08;2.53;;;1.55;;
21987;SDS011;11158;53.404;-1.510;2023-08-07T02:54:52;2.53;;;1.30;;
21987;SDS011;11158;53.404;-1.510;2023-08-07T02:57:37;2.88;;;1.27;;
21987;SDS011;11158;53.404;-1.510;2023-08-07T03:00:21;3.13;;;1.33;;
21987;SDS011;11158;53.404;-1.510;2023-08-07T03:03:05;2.90;;;1.40;;
21987;SDS011;11158;53.404;-1.510;2023-08-07T03:05:50;1.48;;;1.38;;
21987;SDS011;11158;53.404;-1.510;2023-08-07T03:08:34;2.28;;;1.48;;
21987;SDS011;11158;53.404;-1.510;2023-08-07T03:11:18;3.85;;;1.67;;
21987;SDS011;11158;53.404;-1.510;2023-08-07T03:14:02;4.25;;;1.42;;
21987;SDS011;11158;53.404;-1.510;2023-08-07T03:16:47;3.45;;;1.70;;
21987;SDS011;11158;53.404;-1.510;2023-08-07T03:19:31;3.40;;;2.00;;
21987;SDS011;11158;53.404;-1.510;2023-08-07T03:22:15;4.45;;;1.77;;
21987;SDS011;11158;53.404;-1.510;2023-08-07T03:24:59;2.08;;;1.60;;
21987;SDS011;11158;53.404;-1.510;2023-08-07T03:27:43;3.65;;;1.45;;
21987;SDS011;11158;53.404;-1.510;2023-08-07T03:30:27;2.65;;;1.83;;
21987;SDS011;11158;53.404;-1.510;2023-08-07T03:33:11;4.65;;;1.58;;
21987;SDS011;11158;53.404;-1.510;2023-08-07T03:35:55;4.15;;;1.73;;
21987;SDS011;11158;53.404;-1.510;2023-08-07T03:38:39;2.22;;;1.50;;
21987;SDS011;11158;53.404;-1.510;2023-08-07T03:41:23;3.92;;;1.63;;
21987;SDS011;11158;53.404;-1.510;2023-08-07T03:44:07;3.08;;;1.65;;
21987;SDS011;11158;53.404;-1.510;2023-08-07T03:46:51;2.72;;;1.42;;
21987;SDS011;11158;53.404;-1.510;2023-08-07T03:49:36;4.38;;;1.40;;
21987;SDS011;11158;53.404;-1.510;2023-08-07T03:52:19;4.43;;;1.40;;
21987;SDS011;11158;53.404;-1.510;2023-08-07T03:55:04;2.67;;;1.48;;
21987;SDS011;11158;53.404;-1.510;2023-08-07T03:57:49;5.32;;;1.40;;
21987;SDS011;11158;53.404;-1.510;2023-08-07T04:00:33;2.05;;;1.38;;
21987;SDS011;11158;53.404;-1.510;2023-08-07T04:03:18;2.13;;;1.35;;
21987;SDS011;11158;53.404;-1.510;2023-08-07T04:06:03;3.90;;;1.60;;
21987;SDS011;11158;53.404;-1.510;2023-08-07T04:08:49;2.85;;;1.30;;
21987;SDS011;11158;53.404;-1.510;2023-08-07T04:11:33;3.00;;;1.55;;
21987;SDS011;11158;53.404;-1.510;2023-08-07T04:14:17;3.05;;;1.40;;
21987;SDS011;11158;53.404;-1.510;2023-08-07T04:17:01;2.72;;;1.23;;
21987;SDS011;11158;53.404;-1.510;2023-08-07T04:19:46;2.22;;;0.93;;
21987;SDS011;11158;53.404;-1.510;2023-08-07T04:22:30;2.58;;;1.10;;
21987;SDS011;11158;53.404;-1.510;2023-08-07T04:25:14;3.22;;;1.10;;
21987;SDS011;11158;53.404;-1.510;2023-08-07T04:27:58;3.78;;;1.08;;
21987;SDS011;11158;53.404;-1.510;2023-08-07T04:30:43;5.10;;;1.08;;
21987;SDS011;11158;53.404;-1.510;2023-08-07T04:33:28;3.05;;;0.80;;
21987;SDS011;11158;53.404;-1.510;2023-08-07T04:36:12;2.17;;;0.93;;
21987;SDS011;11158;53.404;-1.510;2023-08-07T04:38:56;3.25;;;0.80;;
21987;SDS011;11158;53.404;-1.510;2023-08-07T04:41:40;2.15;;;0.80;;
21987;SDS011;11158;53.404;-1.510;2023-08-07T04:44:24;3.20;;;1.05;;
21987;SDS011;11158;53.404;-1.510;2023-08-07T04:47:08;1.20;;;0.70;;
21987;SDS011;11158;53.404;-1.510;2023-08-07T04:49:52;3.35;;;1.00;;
21987;SDS011;11158;53.404;-1.510;2023-08-07T04:52:37;2.35;;;0.93;;
21987;SDS011;11158;53.404;-1.510;2023-08-07T04:55:21;1.67;;;0.90;;
21987;SDS011;11158;53.404;-1.510;2023-08-07T04:58:05;2.25;;;0.68;;
21987;SDS011;11158;53.404;-1.510;2023-08-07T05:00:53;3.28;;;0.70;;
21987;SDS011;11158;53.404;-1.510;2023-08-07T05:03:39;3.20;;;1.00;;
21987;SDS011;11158;53.404;-1.510;2023-08-07T05:06:22;2.25;;;0.70;;
21987;SDS011;11158;53.404;-1.510;2023-08-07T05:09:06;2.38;;;1.13;;
21987;SDS011;11158;53.404;-1.510;2023-08-07T05:11:50;2.17;;;0.65;;
21987;SDS011;11158;53.404;-1.510;2023-08-07T05:14:34;2.45;;;0.68;;
21987;SDS011;11158;53.404;-1.510;2023-08-07T05:17:18;3.58;;;0.80;;
21987;SDS011;11158;53.404;-1.510;2023-08-07T05:20:03;2.45;;;0.60;;
21987;SDS011;11158;53.404;-1.510;2023-08-07T05:22:49;1.75;;;0.60;;
21987;SDS011;11158;53.404;-1.510;2023-08-07T05:25:33;1.67;;;0.55;;
21987;SDS011;11158;53.404;-1.510;2023-08-07T05:28:17;2.38;;;0.63;;
21987;SDS011;11158;53.404;-1.510;2023-08-07T05:31:01;2.72;;;0.63;;
21987;SDS011;11158;53.404;-1.510;2023-08-07T05:33:45;3.70;;;0.70;;
21987;SDS011;11158;53.404;-1.510;2023-08-07T05:36:29;2.22;;;0.60;;
21987;SDS011;11158;53.404;-1.510;2023-08-07T05:39:15;1.48;;;0.47;;
21987;SDS011;11158;53.404;-1.510;2023-08-07T05:41:59;3.50;;;0.90;;
21987;SDS011;11158;53.404;-1.510;2023-08-07T05:44:43;2.03;;;0.43;;
21987;SDS011;11158;53.404;-1.510;2023-08-07T05:47:27;1.05;;;0.50;;
21987;SDS011;11158;53.404;-1.510;2023-08-07T05:50:11;4.45;;;0.65;;
21987;SDS011;11158;53.404;-1.510;2023-08-07T05:52:55;2.75;;;0.73;;
21987;SDS011;11158;53.404;-1.510;2023-08-07T05:55:40;1.35;;;0.40;;
21987;SDS011;11158;53.404;-1.510;2023-08-07T05:58:25;1.77;;;0.47;;
21987;SDS011;11158;53.404;-1.510;2023-08-07T06:01:11;2.67;;;0.52;;
21987;SDS011;11158;53.404;-1.510;2023-08-07T06:03:56;1.30;;;0.55;;
21987;SDS011;11158;53.404;-1.510;2023-08-07T06:06:40;1.23;;;0.47;;
21987;SDS011;11158;53.404;-1.510;2023-08-07T06:09:26;2.22;;;0.82;;
21987;SDS011;11158;53.404;-1.510;2023-08-07T06:12:10;0.63;;;0.40;;
21987;SDS011;11158;53.404;-1.510;2023-08-07T06:14:54;2.63;;;0.70;;
21987;SDS011;11158;53.404;-1.510;2023-08-07T06:17:38;1.42;;;0.50;;
21987;SDS011;11158;53.404;-1.510;2023-08-07T06:20:23;1.25;;;0.50;;
21987;SDS011;11158;53.404;-1.510;2023-08-07T06:23:07;1.85;;;0.75;;
21987;SDS011;11158;53.404;-1.510;2023-08-07T06:25:51;1.45;;;0.60;;
21987;SDS011;11158;53.404;-1.510;2023-08-07T06:28:35;1.63;;;0.70;;
21987;SDS011;11158;53.404;-1.510;2023-08-07T06:31:22;1.35;;;0.60;;
21987;SDS011;11158;53.404;-1.510;2023-08-07T06:34:06;1.13;;;0.40;;
21987;SDS011;11158;53.404;-1.510;2023-08-07T06:36:51;3.58;;;0.90;;
21987;SDS011;11158;53.404;-1.510;2023-08-07T06:39:35;1.23;;;0.60;;
21987;SDS011;11158;53.404;-1.510;2023-08-07T06:42:19;1.75;;;0.55;;
21987;SDS011;11158;53.404;-1.510;2023-08-07T06:45:03;4.03;;;0.68;;
21987;SDS011;11158;53.404;-1.510;2023-08-07T06:47:47;0.80;;;0.68;;
21987;SDS011;11158;53.404;-1.510;2023-08-07T06:50:31;1.67;;;0.50;;
21987;SDS011;11158;53.404;-1.510;2023-08-07T06:53:16;1.33;;;0.60;;
21987;SDS011;11158;53.404;-1.510;2023-08-07T06:56:01;2.70;;;0.65;;
21987;SDS011;11158;53.404;-1.510;2023-08-07T06:58:45;1.45;;;0.63;;
21987;SDS011;11158;53.404;-1.510;2023-08-07T07:01:29;5.13;;;0.90;;
21987;SDS011;11158;53.404;-1.510;2023-08-07T07:04:13;1.08;;;0.60;;
21987;SDS011;11158;53.404;-1.510;2023-08-07T07:06:57;4.68;;;1.20;;
21987;SDS011;11158;53.404;-1.510;2023-08-07T07:09:41;2.42;;;0.60;;
21987;SDS011;11158;53.404;-1.510;2023-08-07T07:12:28;2.47;;;0.85;;
21987;SDS011;11158;53.404;-1.510;2023-08-07T07:15:12;5.75;;;1.00;;
21987;SDS011;11158;53.404;-1.510;2023-08-07T07:17:57;1.38;;;0.68;;
21987;SDS011;11158;53.404;-1.510;2023-08-07T07:20:41;3.42;;;0.90;;
21987;SDS011;11158;53.404;-1.510;2023-08-07T07:23:26;2.20;;;0.70;;
21987;SDS011;11158;53.404;-1.510;2023-08-07T07:26:10;2.80;;;0.95;;
21987;SDS011;11158;53.404;-1.510;2023-08-07T07:28:54;1.25;;;0.60;;
21987;SDS011;11158;53.404;-1.510;2023-08-07T07:31:39;2.05;;;0.90;;
21987;SDS011;11158;53.404;-1.510;2023-08-07T07:34:23;1.73;;;0.70;;
21987;SDS011;11158;53.404;-1.510;2023-08-07T07:37:07;3.30;;;0.73;;
21987;SDS011;11158;53.404;-1.510;2023-08-07T07:39:51;1.77;;;1.00;;
21987;SDS011;11158;53.404;-1.510;2023-08-07T07:42:35;3.55;;;0.80;;
21987;SDS011;11158;53.404;-1.510;2023-08-07T07:45:19;4.30;;;1.02;;
21987;SDS011;11158;53.404;-1.510;2023-08-07T07:48:03;3.92;;;0.77;;
21987;SDS011;11158;53.404;-1.510;2023-08-07T07:50:48;4.28;;;0.85;;
21987;SDS011;11158;53.404;-1.510;2023-08-07T07:53:31;1.73;;;1.00;;
21987;SDS011;11158;53.404;-1.510;2023-08-07T07:56:16;2.70;;;0.95;;
21987;SDS011;11158;53.404;-1.510;2023-08-07T07:59:00;3.30;;;1.05;;
21987;SDS011;11158;53.404;-1.510;2023-08-07T08:01:44;2.50;;;1.08;;
21987;SDS011;11158;53.404;-1.510;2023-08-07T08:04:27;4.22;;;1.20;;
21987;SDS011;11158;53.404;-1.510;2023-08-07T08:07:11;2.67;;;1.00;;
21987;SDS011;11158;53.404;-1.510;2023-08-07T08:09:56;4.15;;;0.85;;
21987;SDS011;11158;53.404;-1.510;2023-08-07T08:12:40;4.03;;;1.60;;
21987;SDS011;11158;53.404;-1.510;2023-08-07T08:15:24;3.72;;;0.90;;
21987;SDS011;11158;53.404;-1.510;2023-08-07T08:18:08;1.90;;;0.90;;
21987;SDS011;11158;53.404;-1.510;2023-08-07T08:20:53;3.63;;;1.10;;
21987;SDS011;11158;53.404;-1.510;2023-08-07T08:23:37;2.83;;;0.82;;
21987;SDS011;11158;53.404;-1.510;2023-08-07T08:26:21;3.78;;;1.05;;
21987;SDS011;11158;53.404;-1.510;2023-08-07T08:29:06;2.15;;;0.70;;
21987;SDS011;11158;53.404;-1.510;2023-08-07T08:31:51;4.38;;;0.98;;
21987;SDS011;11158;53.404;-1.510;2023-08-07T08:34:37;3.22;;;0.90;;
21987;SDS011;11158;53.404;-1.510;2023-08-07T08:37:21;5.03;;;1.17;;
21987;SDS011;11158;53.404;-1.510;2023-08-07T08:40:10;2.95;;;1.05;;
21987;SDS011;11158;53.404;-1.510;2023-08-07T08:42:56;2.90;;;0.82;;
21987;SDS011;11158;53.404;-1.510;2023-08-07T08:45:44;2.47;;;1.05;;
21987;SDS011;11158;53.404;-1.510;2023-08-07T08:48:29;2.10;;;0.93;;
21987;SDS011;11158;53.404;-1.510;2023-08-07T08:51:19;2.10;;;0.80;;
21987;SDS011;11158;53.404;-1.510;2023-08-07T08:54:05;2.20;;;0.80;;
21987;SDS011;11158;53.404;-1.510;2023-08-07T08:56:51;4.43;;;1.27;;
21987;SDS011;11158;53.404;-1.510;2023-08-07T08:59:36;5.05;;;1.17;;
21987;SDS011;11158;53.404;-1.510;2023-08-07T09:02:21;3.40;;;1.02;;
21987;SDS011;11158;53.404;-1.510;2023-08-07T09:05:05;1.20;;;0.80;;
21987;SDS011;11158;53.404;-1.510;2023-08-07T09:07:50;1.95;;;1.27;;
21987;SDS011;11158;53.404;-1.510;2023-08-07T09:10:34;1.70;;;0.90;;
21987;SDS011;11158;53.404;-1.510;2023-08-07T09:13:20;3.75;;;1.00;;
21987;SDS011;11158;53.404;-1.510;2023-08-07T09:16:08;1.15;;;0.70;;
21987;SDS011;11158;53.404;-1.510;2023-08-07T09:18:54;3.13;;;0.90;;
21987;SDS011;11158;53.404;-1.510;2023-08-07T09:21:39;2.58;;;0.85;;
21987;SDS011;11158;53.404;-1.510;2023-08-07T09:24:24;2.75;;;0.95;;
21987;SDS011;11158;53.404;-1.510;2023-08-07T09:27:08;2.05;;;1.00;;
21987;SDS011;11158;53.404;-1.510;2023-08-07T09:29:54;4.18;;;1.00;;
21987;SDS011;11158;53.404;-1.510;2023-08-07T09:32:39;1.95;;;0.90;;
21987;SDS011;11158;53.404;-1.510;2023-08-07T09:35:23;2.28;;;1.13;;
21987;SDS011;11158;53.404;-1.510;2023-08-07T09:38:07;2.33;;;1.08;;
21987;SDS011;11158;53.404;-1.510;2023-08-07T09:40:51;1.77;;;0.73;;
21987;SDS011;11158;53.404;-1.510;2023-08-07T09:43:36;1.23;;;0.80;;
21987;SDS011;11158;53.404;-1.510;2023-08-07T09:46:21;2.95;;;1.00;;
21987;SDS011;11158;53.404;-1.510;2023-08-07T09:49:05;4.20;;;0.85;;
21987;SDS011;11158;53.404;-1.510;2023-08-07T09:51:49;2.20;;;1.00;;
21987;SDS011;11158;53.404;-1.510;2023-08-07T09:54:34;2.80;;;1.02;;
21987;SDS011;11158;53.404;-1.510;2023-08-07T09:57:19;3.28;;;0.95;;
21987;SDS011;11158;53.404;-1.510;2023-08-07T10:00:04;5.35;;;1.00;;
21987;SDS011;11158;53.404;-1.510;2023-08-07T10:02:55;3.38;;;1.23;;
21987;SDS011;11158;53.404;-1.510;2023-08-07T10:05:40;5.07;;;1.20;;
21987;SDS011;11158;53.404;-1.510;2023-08-07T10:08:26;2.97;;;1.17;;
21987;SDS011;11158;53.404;-1.510;2023-08-07T10:11:11;3.78;;;0.80;;
21987;SDS011;11158;53.404;-1.510;2023-08-07T10:13:55;4.43;;;0.90;;
21987;SDS011;11158;53.404;-1.510;2023-08-07T10:16:41;6.03;;;1.30;;
21987;SDS011;11158;53.404;-1.510;2023-08-07T10:19:26;4.18;;;0.80;;
21987;SDS011;11158;53.404;-1.510;2023-08-07T10:22:10;3.33;;;0.93;;
21987;SDS011;11158;53.404;-1.510;2023-08-07T10:24:57;1.00;;;0.55;;
21987;SDS011;11158;53.404;-1.510;2023-08-07T10:27:42;1.95;;;1.02;;
21987;SDS011;11158;53.404;-1.510;2023-08-07T10:30:27;4.50;;;1.13;;
21987;SDS011;11158;53.404;-1.510;2023-08-07T10:33:12;2.28;;;0.90;;
21987;SDS011;11158;53.404;-1.510;2023-08-07T10:35:58;5.07;;;1.20;;
21987;SDS011;11158;53.404;-1.510;2023-08-07T10:38:50;4.32;;;0.85;;
21987;SDS011;11158;53.404;-1.510;2023-08-07T10:41:42;2.60;;;0.95;;
21987;SDS011;11158;53.404;-1.510;2023-08-07T10:44:30;3.92;;;0.88;;
21987;SDS011;11158;53.404;-1.510;2023-08-07T10:47:17;5.40;;;0.90;;
21987;SDS011;11158;53.404;-1.510;2023-08-07T10:50:16;3.88;;;0.80;;
21987;SDS011;11158;53.404;-1.510;2023-08-07T10:53:03;2.72;;;1.00;;
21987;SDS011;11158;53.404;-1.510;2023-08-07T10:55:48;4.60;;;1.30;;
21987;SDS011;11158;53.404;-1.510;2023-08-07T10:58:33;2.05;;;1.13;;
21987;SDS011;11158;53.404;-1.510;2023-08-07T11:04:06;1.52;;;0.80;;
21987;SDS011;11158;53.404;-1.510;2023-08-07T11:06:52;2.33;;;0.70;;
21987;SDS011;11158;53.404;-1.510;2023-08-07T11:09:36;1.60;;;0.70;;
21987;SDS011;11158;53.404;-1.510;2023-08-07T11:12:20;2.72;;;1.10;;
21987;SDS011;11158;53.404;-1.510;2023-08-07T11:15:11;3.67;;;0.88;;
21987;SDS011;11158;53.404;-1.510;2023-08-07T11:17:55;4.35;;;1.17;;
21987;SDS011;11158;53.404;-1.510;2023-08-07T11:20:39;4.63;;;1.27;;
21987;SDS011;11158;53.404;-1.510;2023-08-07T11:23:27;1.92;;;0.90;;
21987;SDS011;11158;53.404;-1.510;2023-08-07T11:26:13;2.20;;;0.82;;
21987;SDS011;11158;53.404;-1.510;2023-08-07T11:28:58;6.90;;;1.17;;
21987;SDS011;11158;53.404;-1.510;2023-08-07T11:31:42;3.50;;;1.00;;
21987;SDS011;11158;53.404;-1.510;2023-08-07T11:34:26;2.80;;;0.90;;
21987;SDS011;11158;53.404;-1.510;2023-08-07T11:37:14;3.28;;;1.23;;
21987;SDS011;11158;53.404;-1.510;2023-08-07T11:40:01;2.67;;;1.00;;
21987;SDS011;11158;53.404;-1.510;2023-08-07T11:42:46;4.28;;;1.20;;
21987;SDS011;11158;53.404;-1.510;2023-08-07T11:45:30;4.05;;;1.10;;
21987;SDS011;11158;53.404;-1.510;2023-08-07T11:48:16;2.25;;;0.80;;
21987;SDS011;11158;53.404;-1.510;2023-08-07T11:51:01;3.13;;;1.00;;
21987;SDS011;11158;53.404;-1.510;2023-08-07T11:53:46;2.50;;;1.00;;
21987;SDS011;11158;53.404;-1.510;2023-08-07T11:56:31;3.05;;;1.17;;
21987;SDS011;11158;53.404;-1.510;2023-08-07T11:59:18;3.10;;;1.10;;
21987;SDS011;11158;53.404;-1.510;2023-08-07T12:02:08;4.35;;;1.08;;
21987;SDS011;11158;53.404;-1.510;2023-08-07T12:04:58;4.18;;;1.10;;
21987;SDS011;11158;53.404;-1.510;2023-08-07T12:07:43;3.55;;;1.10;;
21987;SDS011;11158;53.404;-1.510;2023-08-07T12:10:27;3.42;;;1.05;;
21987;SDS011;11158;53.404;-1.510;2023-08-07T12:13:14;4.38;;;1.30;;
21987;SDS011;11158;53.404;-1.510;2023-08-07T12:15:58;6.15;;;1.30;;
21987;SDS011;11158;53.404;-1.510;2023-08-07T12:18:43;4.35;;;1.23;;
21987;SDS011;11158;53.404;-1.510;2023-08-07T12:21:29;3.25;;;1.00;;
21987;SDS011;11158;53.404;-1.510;2023-08-07T12:24:16;3.35;;;1.00;;
21987;SDS011;11158;53.404;-1.510;2023-08-07T12:27:02;5.05;;;1.00;;
21987;SDS011;11158;53.404;-1.510;2023-08-07T12:29:48;3.13;;;0.98;;
21987;SDS011;11158;53.404;-1.510;2023-08-07T12:32:32;4.20;;;1.33;;
21987;SDS011;11158;53.404;-1.510;2023-08-07T12:35:16;2.30;;;1.02;;
21987;SDS011;11158;53.404;-1.510;2023-08-07T12:38:00;2.97;;;0.88;;
21987;SDS011;11158;53.404;-1.510;2023-08-07T12:40:48;1.88;;;1.00;;
21987;SDS011;11158;53.404;-1.510;2023-08-07T12:43:32;5.47;;;1.83;;
21987;SDS011;11158;53.404;-1.510;2023-08-07T12:46:16;3.30;;;1.42;;
21987;SDS011;11158;53.404;-1.510;2023-08-07T12:49:00;3.58;;;0.98;;
21987;SDS011;11158;53.404;-1.510;2023-08-07T12:51:44;3.35;;;1.20;;
21987;SDS011;11158;53.404;-1.510;2023-08-07T12:54:29;7.60;;;1.20;;
21987;SDS011;11158;53.404;-1.510;2023-08-07T12:57:13;3.88;;;1.23;;
21987;SDS011;11158;53.404;-1.510;2023-08-07T12:59:57;7.35;;;1.58;;
21987;SDS011;11158;53.404;-1.510;2023-08-07T13:02:42;2.67;;;0.90;;
21987;SDS011;11158;53.404;-1.510;2023-08-07T13:05:28;4.88;;;0.88;;
21987;SDS011;11158;53.404;-1.510;2023-08-07T13:08:14;3.25;;;1.00;;
21987;SDS011;11158;53.404;-1.510;2023-08-07T13:10:59;2.97;;;1.42;;
21987;SDS011;11158;53.404;-1.510;2023-08-07T13:13:43;5.45;;;1.10;;
21987;SDS011;11158;53.404;-1.510;2023-08-07T13:16:28;4.55;;;1.40;;
21987;SDS011;11158;53.404;-1.510;2023-08-07T13:19:12;3.72;;;1.40;;
21987;SDS011;11158;53.404;-1.510;2023-08-07T13:21:57;8.00;;;1.30;;
21987;SDS011;11158;53.404;-1.510;2023-08-07T13:24:41;2.78;;;1.08;;
21987;SDS011;11158;53.404;-1.510;2023-08-07T13:27:25;2.15;;;1.20;;
21987;SDS011;11158;53.404;-1.510;2023-08-07T13:30:09;5.10;;;1.27;;
21987;SDS011;11158;53.404;-1.510;2023-08-07T13:32:54;2.15;;;0.80;;
21987;SDS011;11158;53.404;-1.510;2023-08-07T13:35:38;5.13;;;1.20;;
21987;SDS011;11158;53.404;-1.510;2023-08-07T13:38:23;3.05;;;1.13;;
21987;SDS011;11158;53.404;-1.510;2023-08-07T13:41:07;2.28;;;0.90;;
21987;SDS011;11158;53.404;-1.510;2023-08-07T13:43:52;3.83;;;1.00;;
21987;SDS011;11158;53.404;-1.510;2023-08-07T13:46:36;3.25;;;1.13;;
21987;SDS011;11158;53.404;-1.510;2023-08-07T13:49:21;3.63;;;1.00;;
21987;SDS011;11158;53.404;-1.510;2023-08-07T13:52:07;2.25;;;1.00;;
21987;SDS011;11158;53.404;-1.510;2023-08-07T13:54:51;2.58;;;1.00;;
21987;SDS011;11158;53.404;-1.510;2023-08-07T13:57:35;4.13;;;1.35;;
21987;SDS011;11158;53.404;-1.510;2023-08-07T14:00:19;1.88;;;0.90;;
21987;SDS011;11158;53.404;-1.510;2023-08-07T14:03:03;3.20;;;1.02;;
21987;SDS011;11158;53.404;-1.510;2023-08-07T14:05:48;3.25;;;0.80;;
21987;SDS011;11158;53.404;-1.510;2023-08-07T14:08:33;3.55;;;1.63;;
21987;SDS011;11158;53.404;-1.510;2023-08-07T14:11:18;6.22;;;4.00;;
21987;SDS011;11158;53.404;-1.510;2023-08-07T14:14:03;3.63;;;1.70;;
21987;SDS011;11158;53.404;-1.510;2023-08-07T14:16:48;6.35;;;4.32;;
21987;SDS011;11158;53.404;-1.510;2023-08-07T14:19:32;3.75;;;1.85;;
21987;SDS011;11158;53.404;-1.510;2023-08-07T14:22:16;2.13;;;0.73;;
21987;SDS011;11158;53.404;-1.510;2023-08-07T14:25:00;2.60;;;0.70;;
21987;SDS011;11158;53.404;-1.510;2023-08-07T14:27:44;3.65;;;0.88;;
21987;SDS011;11158;53.404;-1.510;2023-08-07T14:30:29;4.03;;;1.00;;
21987;SDS011;11158;53.404;-1.510;2023-08-07T14:33:13;2.20;;;0.70;;
21987;SDS011;11158;53.404;-1.510;2023-08-07T14:35:57;5.60;;;2.97;;
21987;SDS011;11158;53.404;-1.510;2023-08-07T14:38:41;2.67;;;1.10;;
21987;SDS011;11158;53.404;-1.510;2023-08-07T14:41:25;1.33;;;0.75;;
21987;SDS011;11158;53.404;-1.510;2023-08-07T14:44:09;3.80;;;1.17;;
21987;SDS011;11158;53.404;-1.510;2023-08-07T14:46:53;1.08;;;0.73;;
21987;SDS011;11158;53.404;-1.510;2023-08-07T14:49:37;2.78;;;0.85;;
21987;SDS011;11158;53.404;-1.510;2023-08-07T14:52:21;2.50;;;0.60;;
21987;SDS011;11158;53.404;-1.510;2023-08-07T14:55:05;1.65;;;0.65;;
21987;SDS011;11158;53.404;-1.510;2023-08-07T14:57:50;1.65;;;0.80;;
21987;SDS011;11158;53.404;-1.510;2023-08-07T15:00:34;2.75;;;0.63;;
21987;SDS011;11158;53.404;-1.510;2023-08-07T15:03:19;2.58;;;1.27;;
21987;SDS011;11158;53.404;-1.510;2023-08-07T15:06:03;3.08;;;0.90;;
21987;SDS011;11158;53.404;-1.510;2023-08-07T15:08:48;1.73;;;0.65;;
21987;SDS011;11158;53.404;-1.510;2023-08-07T15:11:32;2.53;;;1.05;;
21987;SDS011;11158;53.404;-1.510;2023-08-07T15:14:16;1.05;;;0.40;;
21987;SDS011;11158;53.404;-1.510;2023-08-07T15:17:01;2.30;;;0.60;;
21987;SDS011;11158;53.404;-1.510;2023-08-07T15:19:45;3.25;;;0.52;;
21987;SDS011;11158;53.404;-1.510;2023-08-07T15:22:29;1.38;;;0.55;;
21987;SDS011;11158;53.404;-1.510;2023-08-07T15:25:13;1.05;;;0.50;;
21987;SDS011;11158;53.404;-1.510;2023-08-07T15:27:58;2.30;;;0.60;;
21987;SDS011;11158;53.404;-1.510;2023-08-07T15:30:47;2.85;;;0.70;;
21987;SDS011;11158;53.404;-1.510;2023-08-07T15:33:36;1.13;;;0.52;;
21987;SDS011;11158;53.404;-1.510;2023-08-07T15:36:20;2.80;;;0.70;;
21987;SDS011;11158;53.404;-1.510;2023-08-07T15:39:04;0.98;;;0.40;;
21987;SDS011;11158;53.404;-1.510;2023-08-07T15:41:48;0.82;;;0.40;;
21987;SDS011;11158;53.404;-1.510;2023-08-07T15:44:32;2.28;;;0.50;;
21987;SDS011;11158;53.404;-1.510;2023-08-07T15:47:16;1.17;;;0.40;;
21987;SDS011;11158;53.404;-1.510;2023-08-07T15:50:00;1.98;;;0.60;;
21987;SDS011;11158;53.404;-1.510;2023-08-07T15:52:45;4.15;;;0.60;;
21987;SDS011;11158;53.404;-1.510;2023-08-07T15:55:29;1.10;;;0.52;;
21987;SDS011;11158;53.404;-1.510;2023-08-07T15:58:15;1.65;;;0.50;;
21987;SDS011;11158;53.404;-1.510;2023-08-07T16:01:02;1.05;;;0.60;;
21987;SDS011;11158;53.404;-1.510;2023-08-07T16:03:46;3.28;;;0.60;;
21987;SDS011;11158;53.404;-1.510;2023-08-07T16:06:30;2.20;;;0.40;;
21987;SDS011;11158;53.404;-1.510;2023-08-07T16:09:14;1.15;;;0.50;;
21987;SDS011;11158;53.404;-1.510;2023-08-07T16:11:58;0.55;;;0.55;;
21987;SDS011;11158;53.404;-1.510;2023-08-07T16:14:43;2.53;;;0.70;;
21987;SDS011;11158;53.404;-1.510;2023-08-07T16:17:27;2.53;;;0.75;;
21987;SDS011;11158;53.404;-1.510;2023-08-07T16:20:12;2.25;;;0.68;;